Weather at Catlett Farms Airport

Public forecast

Using degrees Fahrenheit for public forecast. Weather courtesy of forecast.io.

Closest aviation weather report (METAR) to Catlett Farms Airport

Closest report is Russellville Regional Airport, 28.6 nm (52.9 km) NE. Retrieved 2022/05/17 22:53 UTC (35 minutes ago):

KRUE 172253Z AUTO 12004KT 10SM CLR 26/16 A2994 RMK AO2 SLP132 T02560161

Closest aviation forecast (TAF) to Catlett Farms Airport

Closest forecast is Memorial Field, 34.3 nm (63.6 km) SE. Retrieved 2022/05/17 18:22 UTC (5 hours ago):

TAF KHOT 171720Z 1718/1818 10008KT P6SM VCSH SCT050 BKN120 FM172100 15008KT P6SM BKN120 FM180000 17005KT P6SM SCT120 BKN200 FM181500 20012G20KT P6SM SCT060 SCT120